sensor_id;sensor_type;location;lat;lon;timestamp;temperature;humidity
29577;DHT22;16509;53.862;10.672;2023-02-11T00:01:29;5.10;99.90
29577;DHT22;16509;53.862;10.672;2023-02-11T00:03:57;5.10;99.90
29577;DHT22;16509;53.862;10.672;2023-02-11T00:06:24;5.10;99.90
29577;DHT22;16509;53.862;10.672;2023-02-11T00:08:50;5.00;99.90
29577;DHT22;16509;53.862;10.672;2023-02-11T00:11:18;5.10;99.90
29577;DHT22;16509;53.862;10.672;2023-02-11T00:13:45;5.00;99.90
29577;DHT22;16509;53.862;10.672;2023-02-11T00:16:13;5.10;99.90
29577;DHT22;16509;53.862;10.672;2023-02-11T00:18:39;5.00;99.90
29577;DHT22;16509;53.862;10.672;2023-02-11T00:21:12;5.10;99.90
29577;DHT22;16509;53.862;10.672;2023-02-11T00:23:38;5.10;99.90
29577;DHT22;16509;53.862;10.672;2023-02-11T00:26:13;5.40;99.90
29577;DHT22;16509;53.862;10.672;2023-02-11T00:28:40;5.10;99.90
29577;DHT22;16509;53.862;10.672;2023-02-11T00:31:07;5.00;99.90
29577;DHT22;16509;53.862;10.672;2023-02-11T00:33:33;5.00;99.90
29577;DHT22;16509;53.862;10.672;2023-02-11T00:36:07;6.00;99.90
29577;DHT22;16509;53.862;10.672;2023-02-11T00:38:33;5.00;99.90
29577;DHT22;16509;53.862;10.672;2023-02-11T00:40:59;5.10;99.90
29577;DHT22;16509;53.862;10.672;2023-02-11T00:43:24;5.10;99.90
29577;DHT22;16509;53.862;10.672;2023-02-11T00:45:50;5.10;99.90
29577;DHT22;16509;53.862;10.672;2023-02-11T00:48:16;5.10;99.90
29577;DHT22;16509;53.862;10.672;2023-02-11T00:50:41;5.10;99.90
29577;DHT22;16509;53.862;10.672;2023-02-11T00:53:07;5.10;99.90
29577;DHT22;16509;53.862;10.672;2023-02-11T00:55:33;6.00;99.90
29577;DHT22;16509;53.862;10.672;2023-02-11T00:57:59;6.50;99.90
29577;DHT22;16509;53.862;10.672;2023-02-11T01:00:25;5.10;99.90
29577;DHT22;16509;53.862;10.672;2023-02-11T01:02:52;5.10;99.90
29577;DHT22;16509;53.862;10.672;2023-02-11T01:05:18;5.20;99.90
29577;DHT22;16509;53.862;10.672;2023-02-11T01:07:44;5.10;99.90
29577;DHT22;16509;53.862;10.672;2023-02-11T01:10:10;5.40;99.90
29577;DHT22;16509;53.862;10.672;2023-02-11T01:12:36;5.20;99.90
29577;DHT22;16509;53.862;10.672;2023-02-11T01:15:04;5.30;99.90
29577;DHT22;16509;53.862;10.672;2023-02-11T01:17:30;5.20;99.90
29577;DHT22;16509;53.862;10.672;2023-02-11T01:19:55;5.30;99.90
29577;DHT22;16509;53.862;10.672;2023-02-11T01:22:21;5.20;99.90
29577;DHT22;16509;53.862;10.672;2023-02-11T01:24:47;5.30;99.90
29577;DHT22;16509;53.862;10.672;2023-02-11T01:27:12;5.30;99.90
29577;DHT22;16509;53.862;10.672;2023-02-11T01:29:38;5.30;99.90
29577;DHT22;16509;53.862;10.672;2023-02-11T01:32:04;5.40;99.90
29577;DHT22;16509;53.862;10.672;2023-02-11T01:34:30;5.40;99.90
29577;DHT22;16509;53.862;10.672;2023-02-11T01:36:57;5.40;99.90
29577;DHT22;16509;53.862;10.672;2023-02-11T01:39:24;5.40;99.90
29577;DHT22;16509;53.862;10.672;2023-02-11T01:41:50;5.40;99.90
29577;DHT22;16509;53.862;10.672;2023-02-11T01:44:42;5.40;99.90
29577;DHT22;16509;53.862;10.672;2023-02-11T01:47:08;5.50;99.90
29577;DHT22;16509;53.862;10.672;2023-02-11T01:49:38;5.40;99.90
29577;DHT22;16509;53.862;10.672;2023-02-11T01:52:21;5.50;99.90
29577;DHT22;16509;53.862;10.672;2023-02-11T01:55:10;5.50;99.90
29577;DHT22;16509;53.862;10.672;2023-02-11T01:57:58;5.50;99.90
29577;DHT22;16509;53.862;10.672;2023-02-11T02:00:34;5.60;99.90
29577;DHT22;16509;53.862;10.672;2023-02-11T02:03:12;5.60;99.90
29577;DHT22;16509;53.862;10.672;2023-02-11T02:05:51;5.60;99.90
29577;DHT22;16509;53.862;10.672;2023-02-11T02:08:24;5.60;99.90
29577;DHT22;16509;53.862;10.672;2023-02-11T02:10:54;5.60;99.90
29577;DHT22;16509;53.862;10.672;2023-02-11T02:13:26;5.70;99.90
29577;DHT22;16509;53.862;10.672;2023-02-11T02:16:01;5.70;99.90
29577;DHT22;16509;53.862;10.672;2023-02-11T02:18:40;5.70;99.90
29577;DHT22;16509;53.862;10.672;2023-02-11T02:21:29;5.70;99.90
29577;DHT22;16509;53.862;10.672;2023-02-11T02:24:38;5.70;99.90
29577;DHT22;16509;53.862;10.672;2023-02-11T02:35:48;5.80;99.90
29577;DHT22;16509;53.862;10.672;2023-02-11T02:38:41;5.80;99.90
29577;DHT22;16509;53.862;10.672;2023-02-11T02:41:16;5.90;99.90
29577;DHT22;16509;53.862;10.672;2023-02-11T02:43:47;5.90;99.90
29577;DHT22;16509;53.862;10.672;2023-02-11T02:46:16;5.90;99.90
29577;DHT22;16509;53.862;10.672;2023-02-11T02:48:43;5.90;99.90
29577;DHT22;16509;53.862;10.672;2023-02-11T02:56:50;6.00;99.90
29577;DHT22;16509;53.862;10.672;2023-02-11T03:02:28;6.00;99.90
29577;DHT22;16509;53.862;10.672;2023-02-11T03:10:37;6.10;99.90
29577;DHT22;16509;53.862;10.672;2023-02-11T03:13:05;6.70;99.90
29577;DHT22;16509;53.862;10.672;2023-02-11T03:15:37;6.10;99.90
29577;DHT22;16509;53.862;10.672;2023-02-11T03:18:05;6.10;99.90
29577;DHT22;16509;53.862;10.672;2023-02-11T03:20:35;6.10;99.90
29577;DHT22;16509;53.862;10.672;2023-02-11T03:23:11;6.30;99.90
29577;DHT22;16509;53.862;10.672;2023-02-11T03:25:55;6.20;99.90
29577;DHT22;16509;53.862;10.672;2023-02-11T03:28:41;6.10;99.90
29577;DHT22;16509;53.862;10.672;2023-02-11T03:36:38;6.20;99.90
29577;DHT22;16509;53.862;10.672;2023-02-11T03:39:15;6.20;99.90
29577;DHT22;16509;53.862;10.672;2023-02-11T03:41:43;6.20;99.90
29577;DHT22;16509;53.862;10.672;2023-02-11T03:44:12;6.30;99.90
29577;DHT22;16509;53.862;10.672;2023-02-11T03:46:45;6.30;99.90
29577;DHT22;16509;53.862;10.672;2023-02-11T03:49:14;6.30;99.90
29577;DHT22;16509;53.862;10.672;2023-02-11T03:51:42;6.40;99.90
29577;DHT22;16509;53.862;10.672;2023-02-11T03:54:14;6.30;99.90
29577;DHT22;16509;53.862;10.672;2023-02-11T03:56:56;6.30;99.90
29577;DHT22;16509;53.862;10.672;2023-02-11T03:59:22;6.30;99.90
29577;DHT22;16509;53.862;10.672;2023-02-11T04:01:48;6.40;99.90
29577;DHT22;16509;53.862;10.672;2023-02-11T04:04:13;6.40;99.90
29577;DHT22;16509;53.862;10.672;2023-02-11T04:06:39;6.40;99.90
29577;DHT22;16509;53.862;10.672;2023-02-11T04:09:05;6.40;99.90
29577;DHT22;16509;53.862;10.672;2023-02-11T04:11:34;6.40;99.90
29577;DHT22;16509;53.862;10.672;2023-02-11T04:13:59;6.50;99.90
29577;DHT22;16509;53.862;10.672;2023-02-11T04:16:25;6.50;99.90
29577;DHT22;16509;53.862;10.672;2023-02-11T04:18:51;6.50;99.90
29577;DHT22;16509;53.862;10.672;2023-02-11T04:21:17;6.40;99.90
29577;DHT22;16509;53.862;10.672;2023-02-11T04:23:43;6.50;99.90
29577;DHT22;16509;53.862;10.672;2023-02-11T04:26:08;6.50;99.90
29577;DHT22;16509;53.862;10.672;2023-02-11T04:28:34;6.40;99.90
29577;DHT22;16509;53.862;10.672;2023-02-11T04:31:00;6.40;99.90
29577;DHT22;16509;53.862;10.672;2023-02-11T04:33:26;6.40;99.90
29577;DHT22;16509;53.862;10.672;2023-02-11T04:35:52;6.40;99.90
29577;DHT22;16509;53.862;10.672;2023-02-11T04:38:17;6.40;99.90
29577;DHT22;16509;53.862;10.672;2023-02-11T04:40:43;6.40;99.90
29577;DHT22;16509;53.862;10.672;2023-02-11T04:43:09;6.40;99.90
29577;DHT22;16509;53.862;10.672;2023-02-11T04:45:35;6.40;99.90
29577;DHT22;16509;53.862;10.672;2023-02-11T04:48:02;7.50;99.90
29577;DHT22;16509;53.862;10.672;2023-02-11T04:50:28;7.80;99.90
29577;DHT22;16509;53.862;10.672;2023-02-11T04:52:53;6.40;99.90
29577;DHT22;16509;53.862;10.672;2023-02-11T04:55:19;6.40;99.90
29577;DHT22;16509;53.862;10.672;2023-02-11T04:57:45;6.40;99.90
29577;DHT22;16509;53.862;10.672;2023-02-11T05:00:11;6.40;99.90
29577;DHT22;16509;53.862;10.672;2023-02-11T05:02:37;6.30;99.90
29577;DHT22;16509;53.862;10.672;2023-02-11T05:05:03;6.40;99.90
29577;DHT22;16509;53.862;10.672;2023-02-11T05:07:29;6.40;99.90
29577;DHT22;16509;53.862;10.672;2023-02-11T05:09:55;6.40;99.90
29577;DHT22;16509;53.862;10.672;2023-02-11T05:12:21;6.40;99.90
29577;DHT22;16509;53.862;10.672;2023-02-11T05:14:46;6.50;99.90
29577;DHT22;16509;53.862;10.672;2023-02-11T05:17:12;6.50;99.90
29577;DHT22;16509;53.862;10.672;2023-02-11T05:19:38;6.60;99.90
29577;DHT22;16509;53.862;10.672;2023-02-11T05:22:03;6.50;99.90
29577;DHT22;16509;53.862;10.672;2023-02-11T05:24:32;6.60;99.90
29577;DHT22;16509;53.862;10.672;2023-02-11T05:26:58;6.60;99.90
29577;DHT22;16509;53.862;10.672;2023-02-11T05:29:24;6.60;99.90
29577;DHT22;16509;53.862;10.672;2023-02-11T05:31:50;6.70;99.90
29577;DHT22;16509;53.862;10.672;2023-02-11T05:34:15;6.70;99.90
29577;DHT22;16509;53.862;10.672;2023-02-11T05:36:42;7.00;99.90
29577;DHT22;16509;53.862;10.672;2023-02-11T05:39:14;6.80;99.90
29577;DHT22;16509;53.862;10.672;2023-02-11T05:41:43;6.80;99.90
29577;DHT22;16509;53.862;10.672;2023-02-11T05:44:36;6.80;99.90
29577;DHT22;16509;53.862;10.672;2023-02-11T05:47:01;6.90;99.90
29577;DHT22;16509;53.862;10.672;2023-02-11T05:49:27;6.80;99.90
29577;DHT22;16509;53.862;10.672;2023-02-11T05:52:00;6.90;99.90
29577;DHT22;16509;53.862;10.672;2023-02-11T05:55:01;6.80;99.90
29577;DHT22;16509;53.862;10.672;2023-02-11T05:57:26;6.90;99.90
29577;DHT22;16509;53.862;10.672;2023-02-11T06:00:05;7.60;99.90
29577;DHT22;16509;53.862;10.672;2023-02-11T06:02:37;7.20;99.90
29577;DHT22;16509;53.862;10.672;2023-02-11T06:08:22;8.60;99.90
29577;DHT22;16509;53.862;10.672;2023-02-11T06:11:13;7.10;99.90
29577;DHT22;16509;53.862;10.672;2023-02-11T06:13:41;7.10;99.90
29577;DHT22;16509;53.862;10.672;2023-02-11T06:16:29;7.00;99.90
29577;DHT22;16509;53.862;10.672;2023-02-11T06:19:03;7.00;99.90
29577;DHT22;16509;53.862;10.672;2023-02-11T06:21:42;7.30;99.90
29577;DHT22;16509;53.862;10.672;2023-02-11T06:24:16;7.00;99.90
29577;DHT22;16509;53.862;10.672;2023-02-11T06:26:47;7.10;99.90
29577;DHT22;16509;53.862;10.672;2023-02-11T06:29:13;7.70;99.90
29577;DHT22;16509;53.862;10.672;2023-02-11T06:31:40;7.10;99.90
29577;DHT22;16509;53.862;10.672;2023-02-11T06:34:09;7.10;99.90
29577;DHT22;16509;53.862;10.672;2023-02-11T06:36:38;7.70;99.90
29577;DHT22;16509;53.862;10.672;2023-02-11T06:39:06;7.20;99.90
29577;DHT22;16509;53.862;10.672;2023-02-11T06:41:34;7.10;99.90
29577;DHT22;16509;53.862;10.672;2023-02-11T06:44:02;7.10;99.90
29577;DHT22;16509;53.862;10.672;2023-02-11T06:46:34;7.20;99.90
29577;DHT22;16509;53.862;10.672;2023-02-11T06:49:06;7.10;99.90
29577;DHT22;16509;53.862;10.672;2023-02-11T06:51:31;7.10;99.90
29577;DHT22;16509;53.862;10.672;2023-02-11T06:53:57;7.10;99.90
29577;DHT22;16509;53.862;10.672;2023-02-11T06:56:23;7.10;99.90
29577;DHT22;16509;53.862;10.672;2023-02-11T06:58:53;7.10;99.90
29577;DHT22;16509;53.862;10.672;2023-02-11T07:01:20;7.10;99.90
29577;DHT22;16509;53.862;10.672;2023-02-11T07:03:46;7.10;99.90
29577;DHT22;16509;53.862;10.672;2023-02-11T07:06:15;7.10;99.90
29577;DHT22;16509;53.862;10.672;2023-02-11T07:08:41;7.10;99.90
29577;DHT22;16509;53.862;10.672;2023-02-11T07:11:16;7.80;99.90
29577;DHT22;16509;53.862;10.672;2023-02-11T07:13:42;7.10;99.90
29577;DHT22;16509;53.862;10.672;2023-02-11T07:16:11;7.10;99.90
29577;DHT22;16509;53.862;10.672;2023-02-11T07:18:37;7.10;99.90
29577;DHT22;16509;53.862;10.672;2023-02-11T07:21:07;7.10;99.90
29577;DHT22;16509;53.862;10.672;2023-02-11T07:23:33;7.10;99.90
29577;DHT22;16509;53.862;10.672;2023-02-11T07:26:14;7.20;99.90
29577;DHT22;16509;53.862;10.672;2023-02-11T07:28:44;7.10;99.90
29577;DHT22;16509;53.862;10.672;2023-02-11T07:31:25;7.10;99.90
29577;DHT22;16509;53.862;10.672;2023-02-11T07:33:56;7.10;99.90
29577;DHT22;16509;53.862;10.672;2023-02-11T07:36:24;7.10;99.90
29577;DHT22;16509;53.862;10.672;2023-02-11T07:38:53;7.10;99.90
29577;DHT22;16509;53.862;10.672;2023-02-11T07:41:21;7.10;99.90
29577;DHT22;16509;53.862;10.672;2023-02-11T07:43:48;7.10;99.90
29577;DHT22;16509;53.862;10.672;2023-02-11T07:46:15;7.10;99.90
29577;DHT22;16509;53.862;10.672;2023-02-11T07:48:41;7.10;99.90
29577;DHT22;16509;53.862;10.672;2023-02-11T07:51:19;7.20;99.90
29577;DHT22;16509;53.862;10.672;2023-02-11T07:53:45;7.20;99.90
29577;DHT22;16509;53.862;10.672;2023-02-11T07:56:13;7.20;99.90
29577;DHT22;16509;53.862;10.672;2023-02-11T07:58:45;7.20;99.90
29577;DHT22;16509;53.862;10.672;2023-02-11T08:01:20;7.20;99.90
29577;DHT22;16509;53.862;10.672;2023-02-11T08:03:50;8.60;99.90
29577;DHT22;16509;53.862;10.672;2023-02-11T08:06:17;7.20;99.90
29577;DHT22;16509;53.862;10.672;2023-02-11T08:08:46;7.20;99.90
29577;DHT22;16509;53.862;10.672;2023-02-11T08:11:26;7.20;99.90
29577;DHT22;16509;53.862;10.672;2023-02-11T08:14:10;7.20;99.90
29577;DHT22;16509;53.862;10.672;2023-02-11T08:16:44;7.30;99.90
29577;DHT22;16509;53.862;10.672;2023-02-11T08:19:12;7.30;99.90
29577;DHT22;16509;53.862;10.672;2023-02-11T08:21:38;7.30;99.90
29577;DHT22;16509;53.862;10.672;2023-02-11T08:24:04;7.30;99.90
29577;DHT22;16509;53.862;10.672;2023-02-11T08:26:33;7.30;99.90
29577;DHT22;16509;53.862;10.672;2023-02-11T08:29:00;7.30;99.90
29577;DHT22;16509;53.862;10.672;2023-02-11T08:31:33;7.30;99.90
29577;DHT22;16509;53.862;10.672;2023-02-11T08:33:59;7.30;99.90
29577;DHT22;16509;53.862;10.672;2023-02-11T08:36:32;7.30;99.90
29577;DHT22;16509;53.862;10.672;2023-02-11T08:39:04;7.30;99.90
29577;DHT22;16509;53.862;10.672;2023-02-11T08:41:34;7.30;99.90
29577;DHT22;16509;53.862;10.672;2023-02-11T08:44:00;7.40;99.90
29577;DHT22;16509;53.862;10.672;2023-02-11T08:46:26;7.40;99.90
29577;DHT22;16509;53.862;10.672;2023-02-11T08:48:58;7.40;99.90
29577;DHT22;16509;53.862;10.672;2023-02-11T08:51:26;7.40;99.90
29577;DHT22;16509;53.862;10.672;2023-02-11T08:53:53;7.40;99.90
29577;DHT22;16509;53.862;10.672;2023-02-11T08:56:21;7.40;99.90
29577;DHT22;16509;53.862;10.672;2023-02-11T08:58:53;7.70;99.90
29577;DHT22;16509;53.862;10.672;2023-02-11T09:01:22;8.10;99.90
29577;DHT22;16509;53.862;10.672;2023-02-11T09:03:51;8.10;99.90
29577;DHT22;16509;53.862;10.672;2023-02-11T09:06:18;7.50;99.90
29577;DHT22;16509;53.862;10.672;2023-02-11T09:08:52;7.50;99.90
29577;DHT22;16509;53.862;10.672;2023-02-11T09:11:24;7.50;99.90
29577;DHT22;16509;53.862;10.672;2023-02-11T09:13:50;7.50;99.90
29577;DHT22;16509;53.862;10.672;2023-02-11T09:16:32;8.10;99.90
29577;DHT22;16509;53.862;10.672;2023-02-11T09:18:59;7.60;99.90
29577;DHT22;16509;53.862;10.672;2023-02-11T09:21:28;7.50;99.90
29577;DHT22;16509;53.862;10.672;2023-02-11T09:23:55;8.20;99.90
29577;DHT22;16509;53.862;10.672;2023-02-11T09:26:23;7.60;99.90
29577;DHT22;16509;53.862;10.672;2023-02-11T09:28:49;7.60;99.90
29577;DHT22;16509;53.862;10.672;2023-02-11T09:31:19;7.60;99.90
29577;DHT22;16509;53.862;10.672;2023-02-11T09:33:47;7.60;99.90
29577;DHT22;16509;53.862;10.672;2023-02-11T09:36:19;7.60;99.90
29577;DHT22;16509;53.862;10.672;2023-02-11T09:38:48;7.60;99.90
29577;DHT22;16509;53.862;10.672;2023-02-11T09:43:56;7.60;99.90
29577;DHT22;16509;53.862;10.672;2023-02-11T09:46:30;7.70;99.90
29577;DHT22;16509;53.862;10.672;2023-02-11T09:49:19;7.70;99.90
29577;DHT22;16509;53.862;10.672;2023-02-11T09:51:52;7.70;99.90
29577;DHT22;16509;53.862;10.672;2023-02-11T09:54:27;7.70;99.90
29577;DHT22;16509;53.862;10.672;2023-02-11T09:56:54;7.70;99.90
29577;DHT22;16509;53.862;10.672;2023-02-11T09:59:24;7.70;99.90
29577;DHT22;16509;53.862;10.672;2023-02-11T10:02:05;7.70;99.90
29577;DHT22;16509;53.862;10.672;2023-02-11T10:05:12;7.70;99.90
29577;DHT22;16509;53.862;10.672;2023-02-11T10:08:42;7.70;99.90
29577;DHT22;16509;53.862;10.672;2023-02-11T10:17:09;7.90;99.90
29577;DHT22;16509;53.862;10.672;2023-02-11T10:19:52;8.00;99.90
29577;DHT22;16509;53.862;10.672;2023-02-11T10:22:46;8.00;99.90
29577;DHT22;16509;53.862;10.672;2023-02-11T10:25:35;8.10;99.90
29577;DHT22;16509;53.862;10.672;2023-02-11T10:28:28;8.20;99.90
29577;DHT22;16509;53.862;10.672;2023-02-11T10:31:04;8.20;99.90
29577;DHT22;16509;53.862;10.672;2023-02-11T10:36:28;8.30;99.90
29577;DHT22;16509;53.862;10.672;2023-02-11T10:38:56;8.30;99.90
29577;DHT22;16509;53.862;10.672;2023-02-11T10:41:29;8.30;99.90
29577;DHT22;16509;53.862;10.672;2023-02-11T10:43:59;8.40;99.90
29577;DHT22;16509;53.862;10.672;2023-02-11T10:46:30;9.70;99.90
29577;DHT22;16509;53.862;10.672;2023-02-11T10:48:57;8.50;99.90
29577;DHT22;16509;53.862;10.672;2023-02-11T10:51:28;8.50;99.90
29577;DHT22;16509;53.862;10.672;2023-02-11T10:56:47;8.50;99.90
29577;DHT22;16509;53.862;10.672;2023-02-11T10:59:30;8.60;99.90
29577;DHT22;16509;53.862;10.672;2023-02-11T11:02:15;9.10;99.90
29577;DHT22;16509;53.862;10.672;2023-02-11T11:04:46;8.50;99.90
29577;DHT22;16509;53.862;10.672;2023-02-11T11:07:30;8.50;99.90
29577;DHT22;16509;53.862;10.672;2023-02-11T11:10:05;8.50;99.90
29577;DHT22;16509;53.862;10.672;2023-02-11T11:17:37;8.40;99.90
29577;DHT22;16509;53.862;10.672;2023-02-11T11:20:23;8.50;99.90
29577;DHT22;16509;53.862;10.672;2023-02-11T11:23:15;8.50;99.90
29577;DHT22;16509;53.862;10.672;2023-02-11T11:25:43;8.50;99.90
29577;DHT22;16509;53.862;10.672;2023-02-11T11:28:23;8.60;99.90
29577;DHT22;16509;53.862;10.672;2023-02-11T11:30:51;8.60;99.90
29577;DHT22;16509;53.862;10.672;2023-02-11T11:33:25;8.60;99.90
29577;DHT22;16509;53.862;10.672;2023-02-11T11:35:59;8.60;99.90
29577;DHT22;16509;53.862;10.672;2023-02-11T11:38:29;8.50;99.90
29577;DHT22;16509;53.862;10.672;2023-02-11T11:41:18;8.50;99.90
29577;DHT22;16509;53.862;10.672;2023-02-11T11:44:23;8.50;99.90
29577;DHT22;16509;53.862;10.672;2023-02-11T11:49:52;8.50;99.90
29577;DHT22;16509;53.862;10.672;2023-02-11T11:55:24;8.40;99.90
29577;DHT22;16509;53.862;10.672;2023-02-11T11:57:48;8.40;99.90
29577;DHT22;16509;53.862;10.672;2023-02-11T12:00:35;8.40;99.90
29577;DHT22;16509;53.862;10.672;2023-02-11T12:06:17;8.50;99.90
29577;DHT22;16509;53.862;10.672;2023-02-11T12:09:07;8.50;99.90
29577;DHT22;16509;53.862;10.672;2023-02-11T12:25:43;8.40;99.90
29577;DHT22;16509;53.862;10.672;2023-02-11T12:28:25;8.40;99.90
29577;DHT22;16509;53.862;10.672;2023-02-11T12:33:48;8.40;99.90
29577;DHT22;16509;53.862;10.672;2023-02-11T12:36:41;8.50;99.90
29577;DHT22;16509;53.862;10.672;2023-02-11T12:39:32;8.50;99.90
29577;DHT22;16509;53.862;10.672;2023-02-11T12:42:18;8.50;99.90
29577;DHT22;16509;53.862;10.672;2023-02-11T12:48:59;8.50;99.90
29577;DHT22;16509;53.862;10.672;2023-02-11T12:51:04;8.50;99.90
29577;DHT22;16509;53.862;10.672;2023-02-11T12:59:55;8.50;99.90
29577;DHT22;16509;53.862;10.672;2023-02-11T13:02:38;8.60;99.90
29577;DHT22;16509;53.862;10.672;2023-02-11T13:05:37;8.60;99.90
29577;DHT22;16509;53.862;10.672;2023-02-11T13:08:16;8.60;99.90
29577;DHT22;16509;53.862;10.672;2023-02-11T13:10:56;8.70;99.90
29577;DHT22;16509;53.862;10.672;2023-02-11T13:13:36;8.70;99.90
29577;DHT22;16509;53.862;10.672;2023-02-11T13:16:07;8.80;99.90
29577;DHT22;16509;53.862;10.672;2023-02-11T13:21:16;8.70;99.90
29577;DHT22;16509;53.862;10.672;2023-02-11T13:23:49;8.80;99.90
29577;DHT22;16509;53.862;10.672;2023-02-11T13:26:39;8.80;99.90
29577;DHT22;16509;53.862;10.672;2023-02-11T13:29:25;8.90;99.90
29577;DHT22;16509;53.862;10.672;2023-02-11T13:32:08;8.90;99.90
29577;DHT22;16509;53.862;10.672;2023-02-11T13:40:06;8.90;99.90
29577;DHT22;16509;53.862;10.672;2023-02-11T13:43:01;8.90;99.90
29577;DHT22;16509;53.862;10.672;2023-02-11T13:45:45;8.90;99.90
29577;DHT22;16509;53.862;10.672;2023-02-11T13:48:32;8.90;99.90
29577;DHT22;16509;53.862;10.672;2023-02-11T13:51:33;8.90;99.90
29577;DHT22;16509;53.862;10.672;2023-02-11T13:53:59;8.90;99.90
29577;DHT22;16509;53.862;10.672;2023-02-11T13:56:30;9.10;99.90
29577;DHT22;16509;53.862;10.672;2023-02-11T13:58:59;8.90;99.90
29577;DHT22;16509;53.862;10.672;2023-02-11T14:01:40;8.90;99.90
29577;DHT22;16509;53.862;10.672;2023-02-11T14:04:23;8.90;99.90
29577;DHT22;16509;53.862;10.672;2023-02-11T14:07:31;8.90;99.90
29577;DHT22;16509;53.862;10.672;2023-02-11T14:15:46;8.90;99.90
29577;DHT22;16509;53.862;10.672;2023-02-11T14:23:52;8.90;99.90
29577;DHT22;16509;53.862;10.672;2023-02-11T14:28:47;8.90;99.90
29577;DHT22;16509;53.862;10.672;2023-02-11T14:31:25;9.00;99.90
29577;DHT22;16509;53.862;10.672;2023-02-11T14:34:07;8.90;99.90
29577;DHT22;16509;53.862;10.672;2023-02-11T14:42:27;9.00;99.90
29577;DHT22;16509;53.862;10.672;2023-02-11T14:44:56;9.00;99.90
29577;DHT22;16509;53.862;10.672;2023-02-11T14:47:28;9.00;99.90
29577;DHT22;16509;53.862;10.672;2023-02-11T14:49:55;9.00;99.90
29577;DHT22;16509;53.862;10.672;2023-02-11T14:52:28;9.00;99.90
29577;DHT22;16509;53.862;10.672;2023-02-11T14:57:36;9.10;99.90
29577;DHT22;16509;53.862;10.672;2023-02-11T15:00:19;9.10;99.90
29577;DHT22;16509;53.862;10.672;2023-02-11T15:02:46;9.00;99.90
29577;DHT22;16509;53.862;10.672;2023-02-11T15:05:23;9.10;99.90
29577;DHT22;16509;53.862;10.672;2023-02-11T15:07:59;9.00;99.90
29577;DHT22;16509;53.862;10.672;2023-02-11T15:10:34;9.00;99.90
29577;DHT22;16509;53.862;10.672;2023-02-11T15:13:04;9.00;99.90
29577;DHT22;16509;53.862;10.672;2023-02-11T15:15:31;8.90;99.90
29577;DHT22;16509;53.862;10.672;2023-02-11T15:18:04;8.80;99.90
29577;DHT22;16509;53.862;10.672;2023-02-11T15:20:31;8.80;99.90
29577;DHT22;16509;53.862;10.672;2023-02-11T15:23:04;8.80;99.90
29577;DHT22;16509;53.862;10.672;2023-02-11T15:25:31;8.80;99.90
29577;DHT22;16509;53.862;10.672;2023-02-11T15:27:57;8.70;99.90
29577;DHT22;16509;53.862;10.672;2023-02-11T15:30:30;8.70;99.90
29577;DHT22;16509;53.862;10.672;2023-02-11T15:33:01;8.60;99.90
29577;DHT22;16509;53.862;10.672;2023-02-11T15:35:32;8.60;99.90
29577;DHT22;16509;53.862;10.672;2023-02-11T15:38:00;8.60;99.90
29577;DHT22;16509;53.862;10.672;2023-02-11T15:40:31;8.60;99.90
29577;DHT22;16509;53.862;10.672;2023-02-11T15:43:06;8.60;99.90
29577;DHT22;16509;53.862;10.672;2023-02-11T15:51:34;8.60;99.90
29577;DHT22;16509;53.862;10.672;2023-02-11T15:54:21;8.60;99.90
29577;DHT22;16509;53.862;10.672;2023-02-11T15:56:50;8.60;99.90
29577;DHT22;16509;53.862;10.672;2023-02-11T15:59:25;8.70;99.90
29577;DHT22;16509;53.862;10.672;2023-02-11T16:01:55;8.60;99.90
29577;DHT22;16509;53.862;10.672;2023-02-11T16:04:24;8.50;99.90
29577;DHT22;16509;53.862;10.672;2023-02-11T16:06:50;8.50;99.90
29577;DHT22;16509;53.862;10.672;2023-02-11T16:09:29;8.40;99.90
29577;DHT22;16509;53.862;10.672;2023-02-11T16:11:58;8.40;99.90
29577;DHT22;16509;53.862;10.672;2023-02-11T16:19:30;8.30;99.90
29577;DHT22;16509;53.862;10.672;2023-02-11T16:21:59;8.30;99.90
29577;DHT22;16509;53.862;10.672;2023-02-11T16:24:28;10.20;99.90
29577;DHT22;16509;53.862;10.672;2023-02-11T16:27:05;8.20;99.90
29577;DHT22;16509;53.862;10.672;2023-02-11T16:29:33;8.20;99.90
29577;DHT22;16509;53.862;10.672;2023-02-11T16:32:23;8.10;99.90
29577;DHT22;16509;53.862;10.672;2023-02-11T16:34:51;8.10;99.90
29577;DHT22;16509;53.862;10.672;2023-02-11T16:37:17;8.00;99.90
29577;DHT22;16509;53.862;10.672;2023-02-11T16:39:46;8.00;99.90
29577;DHT22;16509;53.862;10.672;2023-02-11T16:42:13;8.70;99.90
29577;DHT22;16509;53.862;10.672;2023-02-11T16:44:39;7.90;99.90
29577;DHT22;16509;53.862;10.672;2023-02-11T16:47:19;7.90;99.90
29577;DHT22;16509;53.862;10.672;2023-02-11T16:49:49;7.80;99.90
29577;DHT22;16509;53.862;10.672;2023-02-11T16:52:15;7.80;99.90
29577;DHT22;16509;53.862;10.672;2023-02-11T16:54:42;7.80;99.90
29577;DHT22;16509;53.862;10.672;2023-02-11T16:57:13;7.80;99.90
29577;DHT22;16509;53.862;10.672;2023-02-11T16:59:39;7.70;99.90
29577;DHT22;16509;53.862;10.672;2023-02-11T17:02:22;7.70;99.90
29577;DHT22;16509;53.862;10.672;2023-02-11T17:04:56;7.70;99.90
29577;DHT22;16509;53.862;10.672;2023-02-11T17:07:26;8.10;99.90
29577;DHT22;16509;53.862;10.672;2023-02-11T17:09:55;7.60;99.90
29577;DHT22;16509;53.862;10.672;2023-02-11T17:12:28;7.60;99.90
29577;DHT22;16509;53.862;10.672;2023-02-11T17:14:57;7.60;99.90
29577;DHT22;16509;53.862;10.672;2023-02-11T17:17:24;7.60;99.90
29577;DHT22;16509;53.862;10.672;2023-02-11T17:19:50;7.60;99.90
29577;DHT22;16509;53.862;10.672;2023-02-11T17:22:15;7.60;99.90
29577;DHT22;16509;53.862;10.672;2023-02-11T17:24:44;7.60;99.90
29577;DHT22;16509;53.862;10.672;2023-02-11T17:27:10;7.70;99.90
29577;DHT22;16509;53.862;10.672;2023-02-11T17:29:36;7.70;99.90
29577;DHT22;16509;53.862;10.672;2023-02-11T17:32:04;7.70;99.90
29577;DHT22;16509;53.862;10.672;2023-02-11T17:34:30;7.70;99.90
29577;DHT22;16509;53.862;10.672;2023-02-11T17:36:56;7.80;99.90
29577;DHT22;16509;53.862;10.672;2023-02-11T17:39:24;8.10;99.90
29577;DHT22;16509;53.862;10.672;2023-02-11T17:41:50;7.80;99.90
29577;DHT22;16509;53.862;10.672;2023-02-11T17:44:23;7.70;99.90
29577;DHT22;16509;53.862;10.672;2023-02-11T17:46:49;7.70;99.90
29577;DHT22;16509;53.862;10.672;2023-02-11T17:49:15;7.70;99.90
29577;DHT22;16509;53.862;10.672;2023-02-11T17:51:41;7.70;99.90
29577;DHT22;16509;53.862;10.672;2023-02-11T17:54:17;7.80;99.90
29577;DHT22;16509;53.862;10.672;2023-02-11T17:56:45;7.80;99.90
29577;DHT22;16509;53.862;10.672;2023-02-11T17:59:12;7.70;99.90
29577;DHT22;16509;53.862;10.672;2023-02-11T18:01:39;7.70;99.90
29577;DHT22;16509;53.862;10.672;2023-02-11T18:04:06;7.70;99.90
29577;DHT22;16509;53.862;10.672;2023-02-11T18:06:33;7.60;99.90
29577;DHT22;16509;53.862;10.672;2023-02-11T18:08:59;8.20;99.90